sensor_id;sensor_type;location;lat;lon;timestamp;P1;durP1;ratioP1;P2;durP2;ratioP2
8040;SDS011;4063;48.140;10.250;2024-03-08T00:00:34;38.73;;;22.00;;
8040;SDS011;4063;48.140;10.250;2024-03-08T00:03:00;31.97;;;20.53;;
8040;SDS011;4063;48.140;10.250;2024-03-08T00:05:28;33.20;;;21.90;;
8040;SDS011;4063;48.140;10.250;2024-03-08T00:07:54;39.13;;;22.87;;
8040;SDS011;4063;48.140;10.250;2024-03-08T00:10:19;33.63;;;21.73;;
8040;SDS011;4063;48.140;10.250;2024-03-08T00:12:46;33.77;;;21.03;;
8040;SDS011;4063;48.140;10.250;2024-03-08T00:15:12;33.10;;;21.20;;
8040;SDS011;4063;48.140;10.250;2024-03-08T00:17:39;35.10;;;22.53;;
8040;SDS011;4063;48.140;10.250;2024-03-08T00:20:05;34.80;;;21.57;;
8040;SDS011;4063;48.140;10.250;2024-03-08T00:22:37;33.60;;;21.60;;
8040;SDS011;4063;48.140;10.250;2024-03-08T00:25:04;36.07;;;22.60;;
8040;SDS011;4063;48.140;10.250;2024-03-08T00:27:30;33.50;;;22.33;;
8040;SDS011;4063;48.140;10.250;2024-03-08T00:29:56;35.20;;;22.80;;
8040;SDS011;4063;48.140;10.250;2024-03-08T00:32:22;34.97;;;21.63;;
8040;SDS011;4063;48.140;10.250;2024-03-08T00:34:49;35.43;;;21.53;;
8040;SDS011;4063;48.140;10.250;2024-03-08T00:37:17;34.00;;;21.73;;
8040;SDS011;4063;48.140;10.250;2024-03-08T00:39:43;32.60;;;20.87;;
8040;SDS011;4063;48.140;10.250;2024-03-08T00:42:09;33.03;;;21.57;;
8040;SDS011;4063;48.140;10.250;2024-03-08T00:44:35;34.80;;;22.03;;
8040;SDS011;4063;48.140;10.250;2024-03-08T00:47:00;33.23;;;21.53;;
8040;SDS011;4063;48.140;10.250;2024-03-08T00:49:28;35.23;;;22.03;;
8040;SDS011;4063;48.140;10.250;2024-03-08T00:51:54;32.87;;;21.27;;
8040;SDS011;4063;48.140;10.250;2024-03-08T00:54:20;32.07;;;21.07;;
8040;SDS011;4063;48.140;10.250;2024-03-08T00:56:46;35.03;;;21.73;;
8040;SDS011;4063;48.140;10.250;2024-03-08T00:59:12;34.40;;;21.83;;
8040;SDS011;4063;48.140;10.250;2024-03-08T01:01:39;34.67;;;21.77;;
8040;SDS011;4063;48.140;10.250;2024-03-08T01:04:05;34.53;;;21.17;;
8040;SDS011;4063;48.140;10.250;2024-03-08T01:06:32;35.10;;;22.50;;
8040;SDS011;4063;48.140;10.250;2024-03-08T01:08:58;40.57;;;22.20;;
8040;SDS011;4063;48.140;10.250;2024-03-08T01:11:26;30.63;;;20.30;;
8040;SDS011;4063;48.140;10.250;2024-03-08T01:13:53;38.40;;;23.37;;
8040;SDS011;4063;48.140;10.250;2024-03-08T01:16:19;35.70;;;21.97;;
8040;SDS011;4063;48.140;10.250;2024-03-08T01:18:46;32.50;;;21.90;;
8040;SDS011;4063;48.140;10.250;2024-03-08T01:21:12;33.27;;;22.10;;
8040;SDS011;4063;48.140;10.250;2024-03-08T01:23:38;34.00;;;22.03;;
8040;SDS011;4063;48.140;10.250;2024-03-08T01:26:04;34.17;;;20.53;;
8040;SDS011;4063;48.140;10.250;2024-03-08T01:28:31;34.53;;;22.63;;
8040;SDS011;4063;48.140;10.250;2024-03-08T01:30:59;34.50;;;21.57;;
8040;SDS011;4063;48.140;10.250;2024-03-08T01:33:25;36.93;;;23.13;;
8040;SDS011;4063;48.140;10.250;2024-03-08T01:35:51;36.87;;;23.07;;
8040;SDS011;4063;48.140;10.250;2024-03-08T01:38:18;35.50;;;22.63;;
8040;SDS011;4063;48.140;10.250;2024-03-08T01:40:46;36.37;;;23.43;;
8040;SDS011;4063;48.140;10.250;2024-03-08T01:43:21;35.03;;;22.07;;
8040;SDS011;4063;48.140;10.250;2024-03-08T01:45:48;34.03;;;23.80;;
8040;SDS011;4063;48.140;10.250;2024-03-08T01:48:14;35.13;;;23.20;;
8040;SDS011;4063;48.140;10.250;2024-03-08T01:50:41;34.63;;;22.80;;
8040;SDS011;4063;48.140;10.250;2024-03-08T01:53:07;30.60;;;21.30;;
8040;SDS011;4063;48.140;10.250;2024-03-08T01:55:35;37.77;;;22.53;;
8040;SDS011;4063;48.140;10.250;2024-03-08T01:58:03;34.03;;;22.73;;
8040;SDS011;4063;48.140;10.250;2024-03-08T02:00:30;37.80;;;23.30;;
8040;SDS011;4063;48.140;10.250;2024-03-08T02:02:56;36.53;;;22.47;;
8040;SDS011;4063;48.140;10.250;2024-03-08T02:05:23;35.37;;;23.30;;
8040;SDS011;4063;48.140;10.250;2024-03-08T02:07:49;37.37;;;22.67;;
8040;SDS011;4063;48.140;10.250;2024-03-08T02:10:15;39.80;;;24.90;;
8040;SDS011;4063;48.140;10.250;2024-03-08T02:12:41;36.50;;;22.43;;
8040;SDS011;4063;48.140;10.250;2024-03-08T02:15:07;36.40;;;23.13;;
8040;SDS011;4063;48.140;10.250;2024-03-08T02:17:33;35.90;;;22.87;;
8040;SDS011;4063;48.140;10.250;2024-03-08T02:20:00;35.10;;;22.53;;
8040;SDS011;4063;48.140;10.250;2024-03-08T02:22:27;35.57;;;23.17;;
8040;SDS011;4063;48.140;10.250;2024-03-08T02:24:53;36.70;;;23.87;;
8040;SDS011;4063;48.140;10.250;2024-03-08T02:27:23;33.87;;;22.60;;
8040;SDS011;4063;48.140;10.250;2024-03-08T02:29:50;41.90;;;24.83;;
8040;SDS011;4063;48.140;10.250;2024-03-08T02:32:16;36.70;;;23.60;;
8040;SDS011;4063;48.140;10.250;2024-03-08T02:34:43;33.80;;;22.93;;
8040;SDS011;4063;48.140;10.250;2024-03-08T02:37:09;40.63;;;24.83;;
8040;SDS011;4063;48.140;10.250;2024-03-08T02:39:35;36.70;;;23.30;;
8040;SDS011;4063;48.140;10.250;2024-03-08T02:42:01;31.23;;;22.03;;
8040;SDS011;4063;48.140;10.250;2024-03-08T02:44:27;34.60;;;21.77;;
8040;SDS011;4063;48.140;10.250;2024-03-08T02:46:53;34.37;;;22.90;;
8040;SDS011;4063;48.140;10.250;2024-03-08T02:49:20;40.10;;;23.93;;
8040;SDS011;4063;48.140;10.250;2024-03-08T02:51:46;33.80;;;22.93;;
8040;SDS011;4063;48.140;10.250;2024-03-08T02:54:12;33.67;;;22.60;;
8040;SDS011;4063;48.140;10.250;2024-03-08T02:56:38;39.03;;;24.63;;
8040;SDS011;4063;48.140;10.250;2024-03-08T02:59:04;34.70;;;22.97;;
8040;SDS011;4063;48.140;10.250;2024-03-08T03:01:30;34.60;;;23.37;;
8040;SDS011;4063;48.140;10.250;2024-03-08T03:03:57;32.63;;;21.50;;
8040;SDS011;4063;48.140;10.250;2024-03-08T03:06:23;34.73;;;23.70;;
8040;SDS011;4063;48.140;10.250;2024-03-08T03:08:49;37.53;;;23.33;;
8040;SDS011;4063;48.140;10.250;2024-03-08T03:11:16;37.17;;;22.87;;
8040;SDS011;4063;48.140;10.250;2024-03-08T03:13:42;38.53;;;23.90;;
8040;SDS011;4063;48.140;10.250;2024-03-08T03:16:16;33.07;;;22.17;;
8040;SDS011;4063;48.140;10.250;2024-03-08T03:18:43;39.93;;;24.87;;
8040;SDS011;4063;48.140;10.250;2024-03-08T03:21:09;39.23;;;24.33;;
8040;SDS011;4063;48.140;10.250;2024-03-08T03:23:34;35.60;;;22.80;;
8040;SDS011;4063;48.140;10.250;2024-03-08T03:26:02;35.83;;;23.30;;
8040;SDS011;4063;48.140;10.250;2024-03-08T03:28:28;34.03;;;21.60;;
8040;SDS011;4063;48.140;10.250;2024-03-08T03:30:53;36.53;;;24.27;;
8040;SDS011;4063;48.140;10.250;2024-03-08T03:33:23;36.07;;;23.60;;
8040;SDS011;4063;48.140;10.250;2024-03-08T03:35:49;37.23;;;23.23;;
8040;SDS011;4063;48.140;10.250;2024-03-08T03:38:16;36.13;;;22.93;;
8040;SDS011;4063;48.140;10.250;2024-03-08T03:40:43;36.00;;;24.37;;
8040;SDS011;4063;48.140;10.250;2024-03-08T03:43:11;35.83;;;22.77;;
8040;SDS011;4063;48.140;10.250;2024-03-08T03:45:37;34.30;;;22.03;;
8040;SDS011;4063;48.140;10.250;2024-03-08T03:48:03;34.23;;;22.90;;
8040;SDS011;4063;48.140;10.250;2024-03-08T03:50:29;34.77;;;21.90;;
8040;SDS011;4063;48.140;10.250;2024-03-08T03:52:55;40.47;;;23.90;;
8040;SDS011;4063;48.140;10.250;2024-03-08T03:55:22;34.87;;;21.77;;
8040;SDS011;4063;48.140;10.250;2024-03-08T03:57:47;34.73;;;22.07;;
8040;SDS011;4063;48.140;10.250;2024-03-08T04:00:14;36.77;;;23.93;;
8040;SDS011;4063;48.140;10.250;2024-03-08T04:02:40;39.10;;;23.30;;
8040;SDS011;4063;48.140;10.250;2024-03-08T04:05:06;36.57;;;22.33;;
8040;SDS011;4063;48.140;10.250;2024-03-08T04:07:33;33.23;;;22.67;;
8040;SDS011;4063;48.140;10.250;2024-03-08T04:09:59;37.13;;;22.93;;
8040;SDS011;4063;48.140;10.250;2024-03-08T04:12:25;33.30;;;21.30;;
8040;SDS011;4063;48.140;10.250;2024-03-08T04:14:51;34.03;;;22.53;;
8040;SDS011;4063;48.140;10.250;2024-03-08T04:17:18;32.60;;;22.33;;
8040;SDS011;4063;48.140;10.250;2024-03-08T04:19:44;32.90;;;22.53;;
8040;SDS011;4063;48.140;10.250;2024-03-08T04:22:10;35.87;;;22.03;;
8040;SDS011;4063;48.140;10.250;2024-03-08T04:24:36;36.87;;;23.63;;
8040;SDS011;4063;48.140;10.250;2024-03-08T04:27:02;34.87;;;22.23;;
8040;SDS011;4063;48.140;10.250;2024-03-08T04:29:30;34.07;;;23.47;;
8040;SDS011;4063;48.140;10.250;2024-03-08T04:31:57;31.40;;;22.33;;
8040;SDS011;4063;48.140;10.250;2024-03-08T04:34:23;37.03;;;22.53;;
8040;SDS011;4063;48.140;10.250;2024-03-08T04:36:49;37.80;;;24.27;;
8040;SDS011;4063;48.140;10.250;2024-03-08T04:39:15;33.33;;;22.30;;
8040;SDS011;4063;48.140;10.250;2024-03-08T04:41:43;35.73;;;22.87;;
8040;SDS011;4063;48.140;10.250;2024-03-08T04:44:10;37.63;;;22.47;;
8040;SDS011;4063;48.140;10.250;2024-03-08T04:46:37;40.03;;;24.47;;
8040;SDS011;4063;48.140;10.250;2024-03-08T04:49:03;38.57;;;24.77;;
8040;SDS011;4063;48.140;10.250;2024-03-08T04:51:29;40.17;;;25.77;;
8040;SDS011;4063;48.140;10.250;2024-03-08T04:53:55;38.10;;;23.20;;
8040;SDS011;4063;48.140;10.250;2024-03-08T04:56:22;32.60;;;21.43;;
8040;SDS011;4063;48.140;10.250;2024-03-08T04:58:48;34.83;;;22.77;;
8040;SDS011;4063;48.140;10.250;2024-03-08T05:01:14;34.83;;;22.90;;
8040;SDS011;4063;48.140;10.250;2024-03-08T05:03:40;34.57;;;22.73;;
8040;SDS011;4063;48.140;10.250;2024-03-08T05:06:06;31.83;;;22.30;;
8040;SDS011;4063;48.140;10.250;2024-03-08T05:08:32;32.40;;;20.90;;
8040;SDS011;4063;48.140;10.250;2024-03-08T05:10:59;35.97;;;22.83;;
8040;SDS011;4063;48.140;10.250;2024-03-08T05:13:28;31.97;;;21.27;;
8040;SDS011;4063;48.140;10.250;2024-03-08T05:15:55;32.23;;;20.63;;
8040;SDS011;4063;48.140;10.250;2024-03-08T05:18:23;31.27;;;21.53;;
8040;SDS011;4063;48.140;10.250;2024-03-08T05:20:49;33.60;;;21.20;;
8040;SDS011;4063;48.140;10.250;2024-03-08T05:23:16;32.30;;;21.10;;
8040;SDS011;4063;48.140;10.250;2024-03-08T05:25:44;31.13;;;21.33;;
8040;SDS011;4063;48.140;10.250;2024-03-08T05:28:11;34.20;;;21.17;;
8040;SDS011;4063;48.140;10.250;2024-03-08T05:30:38;33.37;;;20.73;;
8040;SDS011;4063;48.140;10.250;2024-03-08T05:33:04;33.40;;;22.67;;
8040;SDS011;4063;48.140;10.250;2024-03-08T05:35:30;31.43;;;21.67;;
8040;SDS011;4063;48.140;10.250;2024-03-08T05:37:57;29.13;;;19.87;;
8040;SDS011;4063;48.140;10.250;2024-03-08T05:40:23;33.07;;;20.93;;
8040;SDS011;4063;48.140;10.250;2024-03-08T05:42:49;31.63;;;21.63;;
8040;SDS011;4063;48.140;10.250;2024-03-08T05:45:15;26.83;;;18.97;;
8040;SDS011;4063;48.140;10.250;2024-03-08T05:47:41;32.07;;;21.50;;
8040;SDS011;4063;48.140;10.250;2024-03-08T05:50:07;30.90;;;20.47;;
8040;SDS011;4063;48.140;10.250;2024-03-08T05:52:35;28.20;;;20.40;;
8040;SDS011;4063;48.140;10.250;2024-03-08T05:55:03;31.33;;;20.50;;
8040;SDS011;4063;48.140;10.250;2024-03-08T05:57:32;36.27;;;22.37;;
8040;SDS011;4063;48.140;10.250;2024-03-08T05:59:58;30.97;;;21.97;;
8040;SDS011;4063;48.140;10.250;2024-03-08T06:02:24;33.70;;;22.10;;
8040;SDS011;4063;48.140;10.250;2024-03-08T06:04:50;30.93;;;19.57;;
8040;SDS011;4063;48.140;10.250;2024-03-08T06:07:16;29.53;;;19.63;;
8040;SDS011;4063;48.140;10.250;2024-03-08T06:09:42;30.43;;;20.97;;
8040;SDS011;4063;48.140;10.250;2024-03-08T06:12:11;26.37;;;19.07;;
8040;SDS011;4063;48.140;10.250;2024-03-08T06:14:37;31.57;;;20.33;;
8040;SDS011;4063;48.140;10.250;2024-03-08T06:17:03;33.43;;;21.13;;
8040;SDS011;4063;48.140;10.250;2024-03-08T06:19:32;30.47;;;19.27;;
8040;SDS011;4063;48.140;10.250;2024-03-08T06:21:59;30.70;;;20.03;;
8040;SDS011;4063;48.140;10.250;2024-03-08T06:24:30;33.53;;;21.00;;
8040;SDS011;4063;48.140;10.250;2024-03-08T06:26:56;33.97;;;20.40;;
8040;SDS011;4063;48.140;10.250;2024-03-08T06:29:22;33.70;;;20.37;;
8040;SDS011;4063;48.140;10.250;2024-03-08T06:31:48;28.30;;;19.13;;
8040;SDS011;4063;48.140;10.250;2024-03-08T06:34:14;32.10;;;20.57;;
8040;SDS011;4063;48.140;10.250;2024-03-08T06:36:40;31.67;;;21.47;;
8040;SDS011;4063;48.140;10.250;2024-03-08T06:39:06;29.23;;;19.87;;
8040;SDS011;4063;48.140;10.250;2024-03-08T06:41:36;31.67;;;20.33;;
8040;SDS011;4063;48.140;10.250;2024-03-08T06:44:02;33.60;;;19.13;;
8040;SDS011;4063;48.140;10.250;2024-03-08T06:46:28;29.93;;;19.17;;
8040;SDS011;4063;48.140;10.250;2024-03-08T06:48:54;36.07;;;21.27;;
8040;SDS011;4063;48.140;10.250;2024-03-08T06:51:20;37.33;;;22.47;;
8040;SDS011;4063;48.140;10.250;2024-03-08T06:53:46;33.50;;;21.80;;
8040;SDS011;4063;48.140;10.250;2024-03-08T06:56:14;31.67;;;20.17;;
8040;SDS011;4063;48.140;10.250;2024-03-08T06:58:40;31.10;;;20.00;;
8040;SDS011;4063;48.140;10.250;2024-03-08T07:01:07;28.13;;;19.77;;
8040;SDS011;4063;48.140;10.250;2024-03-08T07:03:38;28.73;;;19.10;;
8040;SDS011;4063;48.140;10.250;2024-03-08T07:06:08;28.93;;;19.87;;
8040;SDS011;4063;48.140;10.250;2024-03-08T07:08:34;26.20;;;19.07;;
8040;SDS011;4063;48.140;10.250;2024-03-08T07:11:00;28.57;;;19.10;;
8040;SDS011;4063;48.140;10.250;2024-03-08T07:13:26;27.97;;;18.63;;
8040;SDS011;4063;48.140;10.250;2024-03-08T07:15:54;29.27;;;18.33;;
8040;SDS011;4063;48.140;10.250;2024-03-08T07:18:20;29.90;;;20.27;;
8040;SDS011;4063;48.140;10.250;2024-03-08T07:20:47;29.20;;;19.43;;
8040;SDS011;4063;48.140;10.250;2024-03-08T07:23:14;28.40;;;18.90;;
8040;SDS011;4063;48.140;10.250;2024-03-08T07:26:00;31.23;;;19.57;;
8040;SDS011;4063;48.140;10.250;2024-03-08T07:28:26;33.23;;;22.10;;
8040;SDS011;4063;48.140;10.250;2024-03-08T07:30:52;29.77;;;19.27;;
8040;SDS011;4063;48.140;10.250;2024-03-08T07:33:27;27.57;;;17.87;;
8040;SDS011;4063;48.140;10.250;2024-03-08T07:35:53;29.80;;;20.30;;
8040;SDS011;4063;48.140;10.250;2024-03-08T07:38:19;30.20;;;20.83;;
8040;SDS011;4063;48.140;10.250;2024-03-08T07:40:46;30.13;;;20.53;;
8040;SDS011;4063;48.140;10.250;2024-03-08T07:43:13;27.90;;;19.73;;
8040;SDS011;4063;48.140;10.250;2024-03-08T07:45:39;27.83;;;20.10;;
8040;SDS011;4063;48.140;10.250;2024-03-08T07:48:05;26.17;;;18.67;;
8040;SDS011;4063;48.140;10.250;2024-03-08T07:50:38;32.63;;;21.57;;
8040;SDS011;4063;48.140;10.250;2024-03-08T07:53:04;28.00;;;19.87;;
8040;SDS011;4063;48.140;10.250;2024-03-08T07:55:31;27.17;;;18.93;;
8040;SDS011;4063;48.140;10.250;2024-03-08T07:57:58;23.80;;;17.30;;
8040;SDS011;4063;48.140;10.250;2024-03-08T08:00:24;27.47;;;18.47;;
8040;SDS011;4063;48.140;10.250;2024-03-08T08:02:52;28.23;;;18.03;;
8040;SDS011;4063;48.140;10.250;2024-03-08T08:05:18;34.10;;;20.00;;
8040;SDS011;4063;48.140;10.250;2024-03-08T08:07:44;28.77;;;18.90;;
8040;SDS011;4063;48.140;10.250;2024-03-08T08:10:11;27.43;;;18.83;;
8040;SDS011;4063;48.140;10.250;2024-03-08T08:12:47;29.33;;;19.37;;
8040;SDS011;4063;48.140;10.250;2024-03-08T08:15:13;26.63;;;18.70;;
8040;SDS011;4063;48.140;10.250;2024-03-08T08:17:40;23.37;;;17.50;;
8040;SDS011;4063;48.140;10.250;2024-03-08T08:20:06;24.40;;;17.67;;
8040;SDS011;4063;48.140;10.250;2024-03-08T08:22:32;27.83;;;19.20;;
8040;SDS011;4063;48.140;10.250;2024-03-08T08:24:58;27.10;;;18.83;;
8040;SDS011;4063;48.140;10.250;2024-03-08T08:27:24;26.37;;;17.90;;
8040;SDS011;4063;48.140;10.250;2024-03-08T08:29:51;30.77;;;19.70;;
8040;SDS011;4063;48.140;10.250;2024-03-08T08:32:17;26.80;;;18.50;;
8040;SDS011;4063;48.140;10.250;2024-03-08T08:34:43;25.83;;;17.33;;
8040;SDS011;4063;48.140;10.250;2024-03-08T08:37:09;26.10;;;18.30;;
8040;SDS011;4063;48.140;10.250;2024-03-08T08:39:35;28.30;;;18.07;;
8040;SDS011;4063;48.140;10.250;2024-03-08T08:42:02;29.23;;;19.07;;
8040;SDS011;4063;48.140;10.250;2024-03-08T08:44:28;27.13;;;17.53;;
8040;SDS011;4063;48.140;10.250;2024-03-08T08:46:56;26.03;;;16.77;;
8040;SDS011;4063;48.140;10.250;2024-03-08T08:49:22;21.83;;;16.03;;
8040;SDS011;4063;48.140;10.250;2024-03-08T08:51:49;27.77;;;17.83;;
8040;SDS011;4063;48.140;10.250;2024-03-08T08:54:15;24.87;;;17.80;;
8040;SDS011;4063;48.140;10.250;2024-03-08T08:56:42;24.57;;;16.53;;
8040;SDS011;4063;48.140;10.250;2024-03-08T08:59:12;23.70;;;16.93;;
8040;SDS011;4063;48.140;10.250;2024-03-08T09:01:44;26.77;;;17.93;;
8040;SDS011;4063;48.140;10.250;2024-03-08T09:04:12;24.90;;;17.47;;
8040;SDS011;4063;48.140;10.250;2024-03-08T09:06:38;24.40;;;16.27;;
8040;SDS011;4063;48.140;10.250;2024-03-08T09:09:06;25.57;;;16.63;;
8040;SDS011;4063;48.140;10.250;2024-03-08T09:11:38;22.33;;;15.53;;
8040;SDS011;4063;48.140;10.250;2024-03-08T09:14:07;29.37;;;17.67;;
8040;SDS011;4063;48.140;10.250;2024-03-08T09:16:33;23.43;;;16.27;;
8040;SDS011;4063;48.140;10.250;2024-03-08T09:18:59;22.30;;;16.23;;
8040;SDS011;4063;48.140;10.250;2024-03-08T09:21:25;21.30;;;15.03;;
8040;SDS011;4063;48.140;10.250;2024-03-08T09:23:52;20.53;;;16.17;;
8040;SDS011;4063;48.140;10.250;2024-03-08T09:26:18;25.50;;;16.70;;
8040;SDS011;4063;48.140;10.250;2024-03-08T09:28:44;24.70;;;16.90;;
8040;SDS011;4063;48.140;10.250;2024-03-08T09:31:10;23.23;;;16.67;;
8040;SDS011;4063;48.140;10.250;2024-03-08T09:33:36;22.77;;;16.27;;
8040;SDS011;4063;48.140;10.250;2024-03-08T09:36:04;25.13;;;15.93;;
8040;SDS011;4063;48.140;10.250;2024-03-08T09:38:30;22.23;;;16.10;;
8040;SDS011;4063;48.140;10.250;2024-03-08T09:40:56;22.07;;;16.00;;
8040;SDS011;4063;48.140;10.250;2024-03-08T09:43:22;22.97;;;16.03;;
8040;SDS011;4063;48.140;10.250;2024-03-08T09:45:49;21.17;;;15.43;;
8040;SDS011;4063;48.140;10.250;2024-03-08T09:48:16;20.97;;;15.97;;
8040;SDS011;4063;48.140;10.250;2024-03-08T09:50:44;21.03;;;15.47;;
8040;SDS011;4063;48.140;10.250;2024-03-08T09:53:12;26.43;;;15.63;;
8040;SDS011;4063;48.140;10.250;2024-03-08T09:55:39;21.40;;;15.40;;
8040;SDS011;4063;48.140;10.250;2024-03-08T09:58:07;23.80;;;16.47;;
8040;SDS011;4063;48.140;10.250;2024-03-08T10:00:52;19.40;;;14.93;;
8040;SDS011;4063;48.140;10.250;2024-03-08T10:03:21;24.37;;;17.40;;
8040;SDS011;4063;48.140;10.250;2024-03-08T10:05:47;28.27;;;17.93;;
8040;SDS011;4063;48.140;10.250;2024-03-08T10:08:13;25.50;;;17.60;;
8040;SDS011;4063;48.140;10.250;2024-03-08T10:10:39;23.93;;;15.60;;
8040;SDS011;4063;48.140;10.250;2024-03-08T10:13:09;24.17;;;16.77;;
8040;SDS011;4063;48.140;10.250;2024-03-08T10:15:37;24.80;;;16.67;;
8040;SDS011;4063;48.140;10.250;2024-03-08T10:18:05;24.33;;;15.40;;
8040;SDS011;4063;48.140;10.250;2024-03-08T10:20:31;21.63;;;16.37;;
8040;SDS011;4063;48.140;10.250;2024-03-08T10:23:00;21.00;;;14.83;;
8040;SDS011;4063;48.140;10.250;2024-03-08T10:25:28;19.53;;;14.80;;
8040;SDS011;4063;48.140;10.250;2024-03-08T10:27:55;20.97;;;14.77;;
8040;SDS011;4063;48.140;10.250;2024-03-08T10:30:21;22.10;;;14.77;;
8040;SDS011;4063;48.140;10.250;2024-03-08T10:32:48;24.00;;;15.27;;
8040;SDS011;4063;48.140;10.250;2024-03-08T10:35:14;21.60;;;16.07;;
8040;SDS011;4063;48.140;10.250;2024-03-08T10:37:45;20.33;;;14.57;;
8040;SDS011;4063;48.140;10.250;2024-03-08T10:40:18;22.90;;;13.40;;
8040;SDS011;4063;48.140;10.250;2024-03-08T10:42:54;23.23;;;15.83;;
8040;SDS011;4063;48.140;10.250;2024-03-08T10:45:31;23.23;;;15.40;;
8040;SDS011;4063;48.140;10.250;2024-03-08T10:48:08;19.40;;;14.33;;
8040;SDS011;4063;48.140;10.250;2024-03-08T10:50:36;18.10;;;14.93;;
8040;SDS011;4063;48.140;10.250;2024-03-08T10:53:02;22.53;;;14.77;;
8040;SDS011;4063;48.140;10.250;2024-03-08T10:55:28;20.97;;;14.43;;
8040;SDS011;4063;48.140;10.250;2024-03-08T10:57:57;18.47;;;13.80;;
8040;SDS011;4063;48.140;10.250;2024-03-08T11:00:23;18.80;;;13.63;;
8040;SDS011;4063;48.140;10.250;2024-03-08T11:02:55;18.43;;;13.53;;
8040;SDS011;4063;48.140;10.250;2024-03-08T11:05:37;17.93;;;12.90;;
8040;SDS011;4063;48.140;10.250;2024-03-08T11:10:47;20.43;;;14.00;;
8040;SDS011;4063;48.140;10.250;2024-03-08T11:13:35;17.23;;;12.77;;
8040;SDS011;4063;48.140;10.250;2024-03-08T11:16:01;18.87;;;14.60;;
8040;SDS011;4063;48.140;10.250;2024-03-08T11:18:32;17.87;;;13.33;;
8040;SDS011;4063;48.140;10.250;2024-03-08T11:20:58;16.87;;;13.27;;
8040;SDS011;4063;48.140;10.250;2024-03-08T11:23:24;18.27;;;13.40;;
8040;SDS011;4063;48.140;10.250;2024-03-08T11:25:51;19.43;;;14.07;;
8040;SDS011;4063;48.140;10.250;2024-03-08T11:28:18;18.13;;;13.03;;
8040;SDS011;4063;48.140;10.250;2024-03-08T11:30:46;17.60;;;13.90;;
8040;SDS011;4063;48.140;10.250;2024-03-08T11:33:15;16.80;;;12.90;;
8040;SDS011;4063;48.140;10.250;2024-03-08T11:35:42;17.57;;;13.63;;
8040;SDS011;4063;48.140;10.250;2024-03-08T11:38:10;18.50;;;13.63;;
8040;SDS011;4063;48.140;10.250;2024-03-08T11:40:38;17.43;;;13.47;;
8040;SDS011;4063;48.140;10.250;2024-03-08T11:43:05;14.87;;;12.10;;
8040;SDS011;4063;48.140;10.250;2024-03-08T11:45:32;19.73;;;13.43;;
8040;SDS011;4063;48.140;10.250;2024-03-08T11:48:01;18.50;;;13.37;;
8040;SDS011;4063;48.140;10.250;2024-03-08T11:50:28;16.47;;;12.40;;
8040;SDS011;4063;48.140;10.250;2024-03-08T11:53:00;16.90;;;12.73;;
8040;SDS011;4063;48.140;10.250;2024-03-08T11:55:26;16.50;;;12.00;;
8040;SDS011;4063;48.140;10.250;2024-03-08T11:57:59;16.83;;;12.60;;
8040;SDS011;4063;48.140;10.250;2024-03-08T12:00:25;15.80;;;12.27;;
8040;SDS011;4063;48.140;10.250;2024-03-08T12:03:06;18.10;;;13.80;;
8040;SDS011;4063;48.140;10.250;2024-03-08T12:05:34;15.97;;;12.07;;
8040;SDS011;4063;48.140;10.250;2024-03-08T12:08:01;14.70;;;11.37;;
8040;SDS011;4063;48.140;10.250;2024-03-08T12:10:28;20.93;;;12.23;;
8040;SDS011;4063;48.140;10.250;2024-03-08T12:12:54;14.43;;;12.03;;
8040;SDS011;4063;48.140;10.250;2024-03-08T12:15:22;16.50;;;12.23;;
8040;SDS011;4063;48.140;10.250;2024-03-08T12:17:49;17.00;;;12.83;;
8040;SDS011;4063;48.140;10.250;2024-03-08T12:22:42;16.80;;;11.90;;
8040;SDS011;4063;48.140;10.250;2024-03-08T12:25:08;14.47;;;10.90;;
8040;SDS011;4063;48.140;10.250;2024-03-08T12:27:36;16.10;;;12.90;;
8040;SDS011;4063;48.140;10.250;2024-03-08T12:32:57;15.27;;;11.93;;
8040;SDS011;4063;48.140;10.250;2024-03-08T12:35:23;20.17;;;13.00;;
8040;SDS011;4063;48.140;10.250;2024-03-08T12:37:50;15.03;;;12.97;;
8040;SDS011;4063;48.140;10.250;2024-03-08T12:40:17;19.63;;;13.03;;
8040;SDS011;4063;48.140;10.250;2024-03-08T12:42:44;18.83;;;13.10;;
8040;SDS011;4063;48.140;10.250;2024-03-08T12:45:14;16.70;;;12.87;;
8040;SDS011;4063;48.140;10.250;2024-03-08T12:47:40;18.30;;;12.87;;
8040;SDS011;4063;48.140;10.250;2024-03-08T12:50:09;17.13;;;13.80;;
8040;SDS011;4063;48.140;10.250;2024-03-08T12:52:35;16.73;;;13.33;;
8040;SDS011;4063;48.140;10.250;2024-03-08T12:55:01;19.77;;;14.60;;
8040;SDS011;4063;48.140;10.250;2024-03-08T12:57:32;19.37;;;14.57;;
8040;SDS011;4063;48.140;10.250;2024-03-08T12:59:58;18.13;;;13.63;;
8040;SDS011;4063;48.140;10.250;2024-03-08T13:02:25;18.70;;;13.87;;
8040;SDS011;4063;48.140;10.250;2024-03-08T13:04:51;16.80;;;14.67;;
8040;SDS011;4063;48.140;10.250;2024-03-08T13:07:22;19.13;;;13.70;;
8040;SDS011;4063;48.140;10.250;2024-03-08T13:09:50;18.50;;;12.67;;
8040;SDS011;4063;48.140;10.250;2024-03-08T13:12:17;18.63;;;14.00;;
8040;SDS011;4063;48.140;10.250;2024-03-08T13:14:45;19.13;;;14.87;;
8040;SDS011;4063;48.140;10.250;2024-03-08T13:17:11;18.90;;;14.43;;
8040;SDS011;4063;48.140;10.250;2024-03-08T13:19:37;16.73;;;13.33;;
8040;SDS011;4063;48.140;10.250;2024-03-08T13:22:07;20.57;;;15.00;;
8040;SDS011;4063;48.140;10.250;2024-03-08T13:24:36;18.93;;;14.20;;
8040;SDS011;4063;48.140;10.250;2024-03-08T13:27:02;18.97;;;15.17;;
8040;SDS011;4063;48.140;10.250;2024-03-08T13:29:41;22.00;;;14.70;;
8040;SDS011;4063;48.140;10.250;2024-03-08T13:32:08;21.63;;;14.27;;
8040;SDS011;4063;48.140;10.250;2024-03-08T13:34:37;16.10;;;13.10;;
8040;SDS011;4063;48.140;10.250;2024-03-08T13:37:03;13.63;;;11.82;;
8040;SDS011;4063;48.140;10.250;2024-03-08T13:39:31;16.38;;;13.13;;
8040;SDS011;4063;48.140;10.250;2024-03-08T13:42:06;15.95;;;13.05;;
8040;SDS011;4063;48.140;10.250;2024-03-08T13:44:34;18.73;;;13.38;;
8040;SDS011;4063;48.140;10.250;2024-03-08T13:47:00;21.35;;;16.90;;
8040;SDS011;4063;48.140;10.250;2024-03-08T13:49:29;33.97;;;23.13;;
8040;SDS011;4063;48.140;10.250;2024-03-08T13:51:55;25.58;;;19.70;;
8040;SDS011;4063;48.140;10.250;2024-03-08T13:54:23;14.77;;;13.23;;
8040;SDS011;4063;48.140;10.250;2024-03-08T13:56:49;14.93;;;13.30;;
8040;SDS011;4063;48.140;10.250;2024-03-08T13:59:19;17.50;;;13.52;;
8040;SDS011;4063;48.140;10.250;2024-03-08T14:01:47;16.10;;;14.05;;
8040;SDS011;4063;48.140;10.250;2024-03-08T14:04:16;14.48;;;13.00;;
8040;SDS011;4063;48.140;10.250;2024-03-08T14:06:42;16.15;;;14.45;;
8040;SDS011;4063;48.140;10.250;2024-03-08T14:09:11;21.73;;;14.02;;
8040;SDS011;4063;48.140;10.250;2024-03-08T14:11:44;14.35;;;12.85;;
8040;SDS011;4063;48.140;10.250;2024-03-08T14:14:10;14.95;;;13.45;;
8040;SDS011;4063;48.140;10.250;2024-03-08T14:16:39;17.55;;;14.52;;
8040;SDS011;4063;48.140;10.250;2024-03-08T14:19:05;14.82;;;13.25;;
8040;SDS011;4063;48.140;10.250;2024-03-08T14:21:31;15.60;;;12.68;;
8040;SDS011;4063;48.140;10.250;2024-03-08T14:23:58;18.67;;;14.10;;
8040;SDS011;4063;48.140;10.250;2024-03-08T14:26:24;18.63;;;14.27;;
8040;SDS011;4063;48.140;10.250;2024-03-08T14:28:51;17.23;;;13.32;;
8040;SDS011;4063;48.140;10.250;2024-03-08T14:31:19;15.05;;;13.45;;
8040;SDS011;4063;48.140;10.250;2024-03-08T14:33:45;15.52;;;13.48;;
8040;SDS011;4063;48.140;10.250;2024-03-08T14:36:14;14.18;;;12.43;;
8040;SDS011;4063;48.140;10.250;2024-03-08T14:38:42;14.85;;;13.27;;
8040;SDS011;4063;48.140;10.250;2024-03-08T14:41:08;15.45;;;13.85;;